Time;durP1;ratioP1;P1;durP2;ratioP2;P2;SDS_P1;SDS_P2;PMS_P1;PMS_P2;Temp;Humidity;BMP_temperature;BMP_pressure;BME280_temperature;BME280_humidity;BME280_pressure;Samples;Min_cycle;Max_cycle;Signal;HPM_P1;HPM_P2
2021/07/01 00:00:19;;;;;;;0.93;0.93;;;27.20;85.50;;;;;;5014351;28;20363;-77
2021/07/01 00:02:46;;;;;;;1.35;1.05;;;27.30;85.70;;;;;;4996166;28;20034;-74
2021/07/01 00:05:14;;;;;;;0.50;0.50;;;27.30;81.80;;;;;;5014473;28;20042;-76
2021/07/01 00:07:41;;;;;;;0.80;0.80;;;27.40;82.90;;;;;;5014162;28;20100;-77
2021/07/01 00:10:14;;;;;;;2.15;1.95;;;27.20;85.00;;;;;;5014602;28;20544;-75
2021/07/01 00:12:40;;;;;;;1.25;1.15;;;27.20;85.50;;;;;;5014127;28;20389;-77
2021/07/01 00:15:08;;;;;;;1.38;1.27;;;27.10;84.60;;;;;;5014190;28;20504;-76
2021/07/01 00:17:35;;;;;;;0.77;0.77;;;27.20;84.00;;;;;;5028261;28;20034;-75
2021/07/01 00:20:03;;;;;;;2.22;2.03;;;27.20;84.60;;;;;;5034566;28;20381;-75
2021/07/01 00:22:29;;;;;;;1.17;1.05;;;27.10;84.80;;;;;;5034181;28;20125;-77
2021/07/01 00:24:54;;;;;;;1.27;1.17;;;27.20;85.90;;;;;;5034389;28;20116;-76
2021/07/01 00:27:20;;;;;;;1.17;0.90;;;27.20;83.70;;;;;;5033975;28;20129;-76
2021/07/01 00:29:46;;;;;;;2.47;2.15;;;27.10;86.30;;;;;;5031197;28;20148;-76
2021/07/01 00:32:12;;;;;;;1.40;1.25;;;27.10;83.90;;;;;;5013660;28;20088;-78
2021/07/01 00:34:37;;;;;;;2.42;2.22;;;27.10;84.80;;;;;;4996698;28;20130;-77
2021/07/01 00:37:03;;;;;;;2.97;1.17;;;26.90;84.50;;;;;;5013784;28;20448;-76
2021/07/01 00:39:29;;;;;;;2.10;1.83;;;26.80;86.00;;;;;;5013889;28;20040;-76
2021/07/01 00:41:55;;;;;;;3.10;2.55;;;26.90;86.20;;;;;;5013236;28;20033;-76
2021/07/01 00:44:21;;;;;;;1.92;1.50;;;26.80;85.50;;;;;;5011762;28;20068;-74
2021/07/01 00:46:47;;;;;;;2.38;1.33;;;27.00;85.30;;;;;;5012588;28;20129;-75
2021/07/01 00:49:13;;;;;;;1.70;1.60;;;26.90;85.30;;;;;;5013583;28;20034;-77
2021/07/01 00:51:39;;;;;;;0.60;0.60;;;26.90;86.40;;;;;;4994022;28;20096;-75
2021/07/01 00:54:06;;;;;;;6.20;2.05;;;26.80;85.80;;;;;;5012155;28;20516;-76
2021/07/01 00:56:37;;;;;;;1.50;1.25;;;26.70;86.50;;;;;;5012591;28;20029;-74
2021/07/01 00:59:03;;;;;;;0.57;0.57;;;26.70;87.60;;;;;;5012976;28;20022;-74
2021/07/01 01:01:29;;;;;;;0.82;0.82;;;27.00;87.10;;;;;;5011626;28;20481;-74
2021/07/01 01:03:55;;;;;;;1.95;1.83;;;27.10;87.40;;;;;;5011056;28;20133;-75
2021/07/01 01:06:21;;;;;;;2.90;2.17;;;27.10;86.40;;;;;;5012459;28;20108;-76
2021/07/01 01:08:47;;;;;;;1.13;1.02;;;27.10;84.80;;;;;;5012367;28;20059;-75
2021/07/01 01:11:13;;;;;;;0.88;0.88;;;27.00;80.80;;;;;;5011626;28;20041;-75
2021/07/01 01:13:40;;;;;;;2.25;1.10;;;27.00;77.30;;;;;;5011973;28;20104;-75
2021/07/01 01:16:06;;;;;;;1.45;1.35;;;26.90;76.50;;;;;;4994532;28;20030;-75
2021/07/01 01:18:32;;;;;;;2.22;1.65;;;26.20;75.90;;;;;;5011918;28;20032;-75
2021/07/01 01:21:00;;;;;;;1.50;1.20;;;26.40;77.90;;;;;;5012862;28;20034;-75
2021/07/01 01:23:27;;;;;;;0.65;0.65;;;26.70;76.40;;;;;;5012256;28;20108;-74
2021/07/01 01:25:59;;;;;;;35.17;2.55;;;26.80;75.70;;;;;;5011407;28;20045;-75
2021/07/01 01:28:25;;;;;;;2.28;1.27;;;26.80;74.60;;;;;;5011549;28;20030;-74
2021/07/01 01:30:51;;;;;;;1.35;1.25;;;26.00;74.30;;;;;;4995204;28;20040;-75
2021/07/01 01:33:17;;;;;;;1.10;1.00;;;26.10;75.40;;;;;;5011925;28;20042;-75
2021/07/01 01:35:43;;;;;;;34.75;2.15;;;26.30;75.30;;;;;;5012717;28;20033;-75
2021/07/01 01:38:11;;;;;;;1.00;1.00;;;25.80;74.50;;;;;;5012382;28;20045;-75
2021/07/01 01:40:38;;;;;;;0.55;0.55;;;25.50;74.90;;;;;;4995250;28;20105;-75
2021/07/01 01:43:04;;;;;;;0.80;0.80;;;25.40;74.80;;;;;;5012172;28;20040;-76
2021/07/01 01:45:30;;;;;;;1.83;1.70;;;25.30;75.50;;;;;;5011928;28;20042;-74
2021/07/01 01:47:56;;;;;;;0.75;0.75;;;25.60;75.10;;;;;;4994567;28;20104;-75
2021/07/01 01:50:25;;;;;;;0.93;0.93;;;25.70;74.70;;;;;;5011773;28;20037;-75
2021/07/01 01:52:51;;;;;;;0.70;0.70;;;26.00;75.30;;;;;;5011202;28;20144;-75
2021/07/01 01:55:17;;;;;;;0.70;0.70;;;26.10;74.10;;;;;;5011182;28;20030;-77
2021/07/01 01:57:44;;;;;;;0.60;0.60;;;26.30;74.40;;;;;;5011286;28;20160;-76
2021/07/01 02:00:12;;;;;;;0.80;0.80;;;25.90;72.60;;;;;;5011230;28;20686;-75
2021/07/01 02:02:38;;;;;;;1.48;1.38;;;25.90;74.00;;;;;;5007607;28;20050;-75
2021/07/01 02:05:06;;;;;;;1.27;1.17;;;26.10;73.80;;;;;;5002946;28;20084;-75
2021/07/01 02:07:32;;;;;;;1.77;1.52;;;26.40;72.70;;;;;;5002751;28;20805;-75
2021/07/01 02:09:58;;;;;;;0.75;0.70;;;26.50;73.10;;;;;;5001389;28;20038;-76
2021/07/01 02:12:24;;;;;;;1.15;1.10;;;26.50;71.80;;;;;;5005154;28;20038;-76
2021/07/01 02:14:50;;;;;;;1.55;1.45;;;26.50;72.30;;;;;;5011811;28;20054;-76
2021/07/01 02:17:16;;;;;;;1.30;1.20;;;26.60;72.40;;;;;;5019258;28;20167;-76
2021/07/01 02:19:42;;;;;;;2.90;2.45;;;26.60;72.20;;;;;;5031773;28;20037;-76
2021/07/01 02:22:08;;;;;;;1.42;1.33;;;25.60;72.10;;;;;;5031791;28;20026;-77
2021/07/01 02:24:34;;;;;;;4.30;2.67;;;25.30;73.30;;;;;;5031223;28;20034;-77
2021/07/01 02:27:00;;;;;;;1.25;1.15;;;25.50;72.90;;;;;;5031739;28;20524;-78
2021/07/01 02:29:25;;;;;;;6.68;2.70;;;25.60;73.30;;;;;;5031514;28;20026;-77
2021/07/01 02:31:51;;;;;;;2.78;1.90;;;25.80;73.30;;;;;;5031392;28;20544;-75
2021/07/01 02:34:17;;;;;;;1.77;1.60;;;25.40;72.40;;;;;;5031550;28;20029;-77
2021/07/01 02:36:43;;;;;;;0.50;0.50;;;25.20;74.00;;;;;;5031977;28;20381;-77
2021/07/01 02:39:08;;;;;;;2.63;2.42;;;25.60;73.50;;;;;;5013223;28;20041;-77
2021/07/01 02:41:35;;;;;;;5.30;3.45;;;25.80;72.70;;;;;;5009914;28;20048;-76
2021/07/01 02:44:01;;;;;;;4.85;4.43;;;25.80;72.80;;;;;;5011060;28;20030;-77
2021/07/01 02:46:27;;;;;;;1.30;1.20;;;25.60;72.30;;;;;;5011850;28;20049;-77
2021/07/01 02:48:52;;;;;;;1.58;1.48;;;25.20;72.70;;;;;;5011626;28;20540;-76
2021/07/01 02:51:18;;;;;;;4.78;2.35;;;25.50;73.80;;;;;;5012305;28;20041;-77
2021/07/01 02:53:44;;;;;;;7.50;1.25;;;25.80;73.70;;;;;;5011843;28;20026;-77
2021/07/01 02:56:10;;;;;;;0.80;0.80;;;25.70;72.80;;;;;;5011721;28;20517;-77
2021/07/01 02:58:35;;;;;;;1.45;1.35;;;26.00;72.30;;;;;;5011406;28;20123;-78
2021/07/01 03:01:01;;;;;;;0.70;0.70;;;25.30;72.70;;;;;;5009924;28;20034;-77
2021/07/01 03:03:27;;;;;;;1.30;1.20;;;25.20;72.90;;;;;;5010880;28;20113;-76
2021/07/01 03:05:53;;;;;;;1.25;1.15;;;25.20;73.30;;;;;;5010945;28;20383;-77
2021/07/01 03:08:19;;;;;;;1.98;1.77;;;25.30;72.90;;;;;;5011746;28;20474;-77
2021/07/01 03:10:44;;;;;;;4.15;3.50;;;25.00;73.10;;;;;;5010963;28;20056;-77
2021/07/01 03:13:10;;;;;;;1.48;1.35;;;25.10;73.70;;;;;;5011245;28;20037;-77
2021/07/01 03:15:37;;;;;;;14.10;2.15;;;24.80;74.40;;;;;;5011706;28;20065;-77
2021/07/01 03:18:03;;;;;;;1.58;1.48;;;24.80;75.00;;;;;;5024629;28;20033;-76
2021/07/01 03:20:29;;;;;;;0.80;0.80;;;25.20;73.80;;;;;;5017222;28;20029;-77
2021/07/01 03:22:55;;;;;;;2.83;2.60;;;25.30;73.10;;;;;;5011855;28;20452;-76
2021/07/01 03:25:21;;;;;;;3.25;2.28;;;25.30;73.50;;;;;;5011139;28;20489;-76
2021/07/01 03:27:47;;;;;;;0.82;0.82;;;24.80;74.80;;;;;;5011138;28;20045;-77
2021/07/01 03:30:13;;;;;;;2.15;1.98;;;24.80;74.90;;;;;;5010815;28;20033;-78
2021/07/01 03:32:39;;;;;;;1.52;1.33;;;24.80;75.20;;;;;;5011210;28;20041;-76
2021/07/01 03:35:05;;;;;;;6.10;3.70;;;24.80;75.20;;;;;;5010870;28;20022;-78
2021/07/01 03:37:31;;;;;;;2.28;2.08;;;25.00;75.10;;;;;;5009905;28;20037;-78
2021/07/01 03:39:58;;;;;;;1.98;1.88;;;25.00;75.40;;;;;;5010981;28;20049;-78
2021/07/01 03:42:24;;;;;;;1.73;1.63;;;25.30;75.40;;;;;;5010727;28;20022;-78
2021/07/01 03:44:50;;;;;;;0.88;0.85;;;25.50;75.90;;;;;;5011019;28;20026;-78
2021/07/01 03:47:16;;;;;;;1.35;1.23;;;25.60;75.60;;;;;;5010914;28;20053;-78
2021/07/01 03:49:42;;;;;;;1.27;1.23;;;25.50;75.60;;;;;;5010508;28;20034;-77
2021/07/01 03:52:08;;;;;;;1.40;1.30;;;25.50;76.20;;;;;;5011262;28;20061;-76
2021/07/01 03:54:34;;;;;;;1.58;1.48;;;25.60;76.80;;;;;;5010885;28;20045;-77
2021/07/01 03:57:00;;;;;;;1.65;1.55;;;25.70;77.40;;;;;;5010842;28;20022;-77
2021/07/01 03:59:26;;;;;;;1.38;1.15;;;25.50;77.90;;;;;;5010805;28;20508;-77
2021/07/01 04:01:52;;;;;;;0.77;0.77;;;25.70;78.00;;;;;;5010862;28;20026;-78
2021/07/01 04:04:18;;;;;;;3.90;2.78;;;25.80;77.80;;;;;;5010750;28;20093;-77
2021/07/01 04:06:44;;;;;;;1.75;1.63;;;25.80;77.50;;;;;;5010679;28;20041;-78
2021/07/01 04:09:09;;;;;;;0.98;0.95;;;25.80;78.60;;;;;;5010824;28;20086;-76
2021/07/01 04:11:35;;;;;;;1.80;1.67;;;25.80;76.50;;;;;;5010570;28;20544;-75
2021/07/01 04:14:03;;;;;;;0.85;0.82;;;25.90;75.20;;;;;;5010469;28;20068;-77
2021/07/01 04:16:28;;;;;;;0.88;0.88;;;26.00;74.70;;;;;;5011139;28;20044;-78
2021/07/01 04:18:54;;;;;;;1.25;1.05;;;26.00;73.50;;;;;;5033009;28;20037;-77
2021/07/01 04:21:24;;;;;;;0.60;0.60;;;26.00;74.70;;;;;;5033844;28;20022;-77
2021/07/01 04:23:50;;;;;;;;;;;25.80;74.60;;;;;;5034779;28;20038;-75
2021/07/01 04:26:16;;;;;;;1.85;1.67;;;25.80;74.50;;;;;;5032772;28;19913;-77
2021/07/01 04:28:42;;;;;;;1.17;1.08;;;25.80;74.60;;;;;;5033362;28;20029;-76
2021/07/01 04:31:08;;;;;;;1.30;1.20;;;25.80;73.90;;;;;;5034071;28;20390;-75
2021/07/01 04:33:34;;;;;;;1.80;1.48;;;26.10;74.20;;;;;;5033887;28;20477;-76
2021/07/01 04:36:00;;;;;;;2.13;1.90;;;26.10;73.00;;;;;;5033602;28;20038;-76
2021/07/01 04:38:26;;;;;;;3.60;2.78;;;26.20;72.80;;;;;;5033567;28;20120;-75
2021/07/01 04:40:51;;;;;;;0.60;0.60;;;26.20;72.70;;;;;;5033919;28;20131;-77
2021/07/01 04:43:17;;;;;;;1.00;0.95;;;25.80;73.50;;;;;;5033637;28;20454;-77
2021/07/01 04:45:43;;;;;;;1.92;1.80;;;25.60;72.80;;;;;;5033612;28;20038;-75
2021/07/01 04:48:09;;;;;;;22.73;2.70;;;25.80;72.20;;;;;;5032198;28;20515;-76
2021/07/01 04:50:35;;;;;;;2.08;1.52;;;25.80;73.40;;;;;;5032561;28;20033;-76
2021/07/01 04:53:01;;;;;;;5.10;3.13;;;25.60;72.40;;;;;;5033640;28;20073;-76
2021/07/01 04:55:26;;;;;;;2.53;2.33;;;25.80;73.00;;;;;;5033708;28;20123;-76
2021/07/01 04:57:52;;;;;;;3.03;1.35;;;26.10;72.80;;;;;;5031781;28;20055;-77
2021/07/01 05:00:18;;;;;;;21.58;2.70;;;26.30;72.80;;;;;;5032977;28;20472;-77
2021/07/01 05:02:44;;;;;;;2.38;2.17;;;26.40;71.50;;;;;;5033332;28;20549;-79
2021/07/01 05:05:10;;;;;;;0.80;0.70;;;26.50;73.80;;;;;;5033004;28;20053;-78
2021/07/01 05:07:45;;;;;;;7.45;2.17;;;26.40;73.30;;;;;;5033182;28;20335;-78
2021/07/01 05:10:14;;;;;;;5.05;1.65;;;26.50;75.10;;;;;;5033407;28;20029;-82
2021/07/01 05:12:40;;;;;;;1.02;0.93;;;26.50;75.80;;;;;;5033270;28;20053;-79
2021/07/01 05:15:06;;;;;;;4.10;3.50;;;26.20;75.40;;;;;;5031480;28;20084;-84
2021/07/01 05:17:34;;;;;;;0.80;0.80;;;26.50;76.70;;;;;;5025451;28;20034;-79
2021/07/01 05:19:59;;;;;;;0.77;0.77;;;26.40;77.40;;;;;;5013056;28;20029;-81
2021/07/01 05:22:25;;;;;;;2.10;1.67;;;26.40;76.20;;;;;;5011389;28;20044;-81
2021/07/01 05:24:51;;;;;;;1.20;1.15;;;26.20;76.80;;;;;;5013496;28;20065;-80
2021/07/01 05:27:17;;;;;;;0.90;0.90;;;26.20;75.00;;;;;;5013021;28;20046;-81
2021/07/01 05:29:43;;;;;;;1.75;1.58;;;26.30;74.00;;;;;;5004430;28;20037;-82
2021/07/01 05:32:09;;;;;;;2.33;2.13;;;26.20;73.90;;;;;;5005098;28;20488;-80
2021/07/01 05:34:34;;;;;;;5.47;3.85;;;26.30;75.30;;;;;;5012251;28;20030;-79
2021/07/01 05:37:00;;;;;;;4.57;3.88;;;26.50;75.90;;;;;;5004284;28;20041;-80
2021/07/01 05:39:26;;;;;;;5.35;2.58;;;26.60;76.60;;;;;;5012241;28;20057;-79
2021/07/01 05:41:52;;;;;;;1.35;1.25;;;26.60;75.90;;;;;;5006946;28;20026;-79
2021/07/01 05:44:18;;;;;;;1.20;1.10;;;26.50;78.00;;;;;;4998707;28;20505;-85
2021/07/01 05:46:45;;;;;;;1.83;1.15;;;26.50;77.90;;;;;;4994491;28;20049;-83
2021/07/01 05:52:19;;;;;;;1.50;1.40;;;26.60;77.80;;;;;;4970766;28;20523;-81
2021/07/01 05:55:22;;;;;;;3.42;3.13;;;26.80;77.60;;;;;;5203209;22;20060;-83
2021/07/01 05:57:57;;;;;;;2.40;1.92;;;26.80;79.00;;;;;;5031020;28;20212;-84
2021/07/01 06:00:26;;;;;;;1.73;1.63;;;26.90;77.30;;;;;;5031795;28;20045;-88
2021/07/01 06:05:55;;;;;;;0.85;0.85;;;27.00;78.40;;;;;;5263034;22;20122;-86
2021/07/01 06:08:32;;;;;;;0.65;0.65;;;27.00;78.80;;;;;;5032341;28;20021;-87
2021/07/01 06:11:14;;;;;;;1.50;1.40;;;26.90;77.90;;;;;;5032194;28;20676;-85
2021/07/01 06:14:25;;;;;;;2.28;1.80;;;26.80;77.00;;;;;;5032282;28;20025;-83
2021/07/01 06:17:17;;;;;;;0.73;0.70;;;26.70;77.60;;;;;;5032350;28;20026;-85
2021/07/01 06:19:47;;;;;;;2.05;1.67;;;27.00;77.90;;;;;;5007730;28;20048;-83
2021/07/01 06:22:13;;;;;;;2.25;2.05;;;27.00;79.70;;;;;;5011967;28;20030;-80
2021/07/01 06:24:39;;;;;;;1.98;1.48;;;27.20;77.90;;;;;;5012155;28;20038;-80
2021/07/01 06:27:05;;;;;;;4.68;1.35;;;27.30;77.60;;;;;;5011743;28;20066;-82
2021/07/01 06:29:31;;;;;;;1.50;1.40;;;27.30;78.90;;;;;;5011230;28;20026;-79
2021/07/01 06:31:57;;;;;;;2.03;1.38;;;27.40;78.10;;;;;;5011412;28;20132;-79
2021/07/01 06:34:23;;;;;;;1.17;1.08;;;27.40;78.40;;;;;;5009582;28;20030;-79
2021/07/01 06:36:53;;;;;;;2.53;2.33;;;27.30;76.90;;;;;;5010356;28;20521;-85
2021/07/01 06:39:23;;;;;;;1.85;1.45;;;27.40;77.30;;;;;;5012094;28;20700;-78
2021/07/01 06:41:52;;;;;;;1.58;1.48;;;27.40;77.50;;;;;;5010409;28;20026;-80
2021/07/01 06:44:21;;;;;;;1.13;1.08;;;27.60;77.40;;;;;;5010300;28;20034;-79
2021/07/01 06:47:05;;;;;;;4.07;2.28;;;27.80;77.70;;;;;;5011359;28;20042;-81
2021/07/01 06:50:03;;;;;;;0.93;0.93;;;27.80;77.70;;;;;;5010303;28;20034;-81
2021/07/01 06:52:29;;;;;;;1.52;1.42;;;27.80;76.80;;;;;;5024117;28;20375;-81
2021/07/01 06:55:25;;;;;;;3.10;2.08;;;27.90;76.60;;;;;;5011481;28;20489;-80
2021/07/01 06:57:59;;;;;;;1.25;1.15;;;28.00;76.60;;;;;;5011531;28;20029;-79
2021/07/01 07:00:31;;;;;;;0.95;0.95;;;28.00;77.30;;;;;;5011572;28;20088;-80
2021/07/01 07:02:57;;;;;;;0.85;0.85;;;28.10;76.40;;;;;;5006310;28;20038;-81
2021/07/01 07:08:09;;;;;;;0.85;0.85;;;27.90;77.80;;;;;;4992096;28;20093;-79
2021/07/01 07:10:57;;;;;;;2.95;1.88;;;27.70;78.20;;;;;;4992349;28;20069;-80
2021/07/01 07:13:24;;;;;;;1.23;1.13;;;28.00;78.10;;;;;;4990322;28;20045;-80
2021/07/01 07:15:57;;;;;;;3.10;1.00;;;28.20;77.90;;;;;;4991125;28;20049;-81
2021/07/01 07:18:31;;;;;;;2.95;2.35;;;28.30;77.50;;;;;;5011632;28;20033;-80
2021/07/01 07:21:03;;;;;;;1.38;1.10;;;28.40;77.30;;;;;;5030048;28;20040;-81
2021/07/01 07:27:03;;;;;;;;;;;;;;;;;;;;;
2021/07/01 07:29:36;;;;;;;1.15;1.05;;;28.60;76.60;;;;;;5031043;28;20033;-81
2021/07/01 07:32:05;;;;;;;5.47;4.95;;;28.60;76.80;;;;;;5030746;28;20561;-81
2021/07/01 07:34:33;;;;;;;0.63;0.60;;;28.70;76.90;;;;;;5029825;28;20084;-81
2021/07/01 07:36:59;;;;;;;27.48;2.75;;;28.70;75.80;;;;;;5030487;28;20104;-81
2021/07/01 07:39:26;;;;;;;1.27;1.17;;;28.80;76.10;;;;;;5029343;28;20057;-80
2021/07/01 07:41:53;;;;;;;1.05;0.80;;;28.90;75.80;;;;;;5030901;28;20485;-81
2021/07/01 07:44:19;;;;;;;2.20;0.82;;;28.40;76.50;;;;;;5029504;28;20048;-82
2021/07/01 07:46:50;;;;;;;1.15;1.05;;;28.60;76.80;;;;;;5030640;28;20038;-78
2021/07/01 07:49:16;;;;;;;5.45;1.23;;;28.80;76.50;;;;;;5030656;28;20079;-79
2021/07/01 07:51:47;;;;;;;1.00;0.95;;;28.80;76.60;;;;;;5031251;28;20037;-81
2021/07/01 07:54:14;;;;;;;1.98;1.45;;;29.00;75.70;;;;;;5034525;28;20038;-80
2021/07/01 07:56:41;;;;;;;9.65;2.08;;;29.00;75.60;;;;;;5034512;28;20103;-80
2021/07/01 07:59:10;;;;;;;2.60;1.08;;;29.00;76.50;;;;;;5032960;28;20061;-83
2021/07/01 08:01:39;;;;;;;2.50;1.65;;;29.20;76.20;;;;;;5034540;28;20025;-81
2021/07/01 08:04:08;;;;;;;1.13;0.68;;;29.10;76.10;;;;;;5049582;28;20396;-81
2021/07/01 08:06:34;;;;;;;0.93;0.93;;;29.30;76.10;;;;;;5034363;28;20037;-80
2021/07/01 08:09:04;;;;;;;1.27;1.05;;;29.40;75.50;;;;;;5033913;28;20033;-81
2021/07/01 08:11:35;;;;;;;0.82;0.73;;;29.40;75.40;;;;;;5034528;28;20021;-81
2021/07/01 08:14:01;;;;;;;1.17;0.98;;;29.60;75.90;;;;;;5032247;28;20052;-86
2021/07/01 08:16:27;;;;;;;0.90;0.85;;;29.60;75.50;;;;;;5034513;28;20056;-82
2021/07/01 08:18:53;;;;;;;0.47;0.47;;;29.70;75.50;;;;;;5019730;28;20065;-84
2021/07/01 08:21:19;;;;;;;0.85;0.68;;;29.80;74.50;;;;;;5014460;28;20053;-80
2021/07/01 08:23:46;;;;;;;1.70;1.05;;;29.60;75.20;;;;;;5014002;28;20037;-82
2021/07/01 08:26:12;;;;;;;0.60;0.60;;;29.70;75.50;;;;;;5013128;28;20038;-80
2021/07/01 08:28:39;;;;;;;2.30;1.75;;;29.60;75.00;;;;;;5013779;28;20030;-83
2021/07/01 08:31:16;;;;;;;0.63;0.63;;;29.60;75.50;;;;;;5013953;28;20577;-81
2021/07/01 08:33:45;;;;;;;0.50;0.50;;;30.00;75.40;;;;;;5029217;28;20045;-81
2021/07/01 08:36:30;;;;;;;2.58;1.73;;;30.00;74.80;;;;;;5013117;28;20064;-83
2021/07/01 08:38:56;;;;;;;1.17;1.08;;;30.00;74.70;;;;;;5013788;28;20293;-82
2021/07/01 08:41:24;;;;;;;0.60;0.60;;;29.70;75.30;;;;;;5012922;28;20366;-82
2021/07/01 08:44:24;;;;;;;0.57;0.57;;;29.70;74.20;;;;;;5012151;28;20478;-83
2021/07/01 08:47:00;;;;;;;1.30;1.15;;;30.00;74.10;;;;;;5015174;28;20100;-82
2021/07/01 08:49:35;;;;;;;3.22;2.17;;;30.10;73.80;;;;;;5013872;28;20481;-80
2021/07/01 08:52:05;;;;;;;2.15;1.60;;;30.10;74.60;;;;;;5028946;28;20049;-81
2021/07/01 08:54:34;;;;;;;2.85;1.63;;;30.20;73.80;;;;;;5013601;28;20030;-81
2021/07/01 08:57:05;;;;;;;2.90;0.70;;;30.40;73.80;;;;;;5029240;28;20136;-82
2021/07/01 08:59:52;;;;;;;2.80;2.42;;;30.30;74.20;;;;;;5013748;28;20042;-82
2021/07/01 09:02:23;;;;;;;0.52;0.52;;;30.50;73.30;;;;;;5013092;28;20460;-80
2021/07/01 09:04:56;;;;;;;5.78;1.42;;;30.60;72.90;;;;;;5011998;28;20049;-84
2021/07/01 09:10:01;;;;;;;0.95;0.60;;;30.80;73.00;;;;;;5011981;28;20526;-81
2021/07/01 09:12:28;;;;;;;4.25;2.70;;;31.00;72.40;;;;;;5013357;28;20034;-85
2021/07/01 09:14:58;;;;;;;1.20;1.02;;;31.10;70.40;;;;;;5013014;28;20030;-85
2021/07/01 09:17:31;;;;;;;1.45;1.33;;;31.20;70.00;;;;;;5013512;28;20120;-84
2021/07/01 09:19:59;;;;;;;5.55;2.58;;;31.20;70.20;;;;;;4993817;28;20113;-84
2021/07/01 09:22:27;;;;;;;0.47;0.47;;;31.20;70.80;;;;;;4993473;28;20042;-83
2021/07/01 09:24:55;;;;;;;2.63;0.98;;;31.60;69.50;;;;;;4993615;28;20285;-85
2021/07/01 09:27:22;;;;;;;1.42;1.33;;;31.80;70.10;;;;;;4993826;28;20054;-84
2021/07/01 09:29:49;;;;;;;1.23;1.08;;;32.30;68.00;;;;;;4993375;28;20034;-83
2021/07/01 09:32:16;;;;;;;1.50;1.40;;;32.40;66.70;;;;;;4992866;28;20038;-83
2021/07/01 09:34:45;;;;;;;3.30;1.20;;;32.30;67.10;;;;;;4994549;28;20382;-89
2021/07/01 09:37:10;;;;;;;0.47;0.47;;;32.30;66.80;;;;;;4994058;28;20050;-88
2021/07/01 09:39:38;;;;;;;0.93;0.85;;;32.20;65.00;;;;;;4994158;28;20033;-84
2021/07/01 09:42:05;;;;;;;1.13;1.02;;;32.00;64.60;;;;;;4993819;28;20049;-86
2021/07/01 09:44:32;;;;;;;1.17;1.08;;;32.20;63.90;;;;;;4993658;28;20053;-82
2021/07/01 09:47:00;;;;;;;0.50;0.50;;;32.60;64.40;;;;;;4993515;28;20066;-80
2021/07/01 09:49:56;;;;;;;3.25;1.60;;;32.40;63.80;;;;;;4993088;28;20116;-79
2021/07/01 09:52:27;;;;;;;1.10;1.00;;;32.30;61.50;;;;;;4992976;28;20084;-78
2021/07/01 09:54:58;;;;;;;1.90;1.73;;;32.40;59.10;;;;;;5007934;28;20030;-81
2021/07/01 09:57:33;;;;;;;1.23;1.00;;;32.70;59.30;;;;;;4993074;28;20092;-82
2021/07/01 10:00:09;;;;;;;7.30;2.00;;;32.70;59.20;;;;;;4991406;28;20497;-80
2021/07/01 10:02:36;;;;;;;3.10;0.77;;;32.50;60.10;;;;;;4992922;28;20445;-80
2021/07/01 10:05:07;;;;;;;0.57;0.57;;;32.90;58.60;;;;;;4992410;28;20030;-80
2021/07/01 10:07:33;;;;;;;2.00;1.65;;;33.10;58.50;;;;;;4991208;28;20042;-78
2021/07/01 10:10:11;;;;;;;4.90;2.40;;;33.20;57.60;;;;;;4992478;28;20113;-81
2021/07/01 10:12:51;;;;;;;2.15;1.95;;;32.90;56.70;;;;;;4992641;28;20031;-79
2021/07/01 10:15:25;;;;;;;1.65;1.02;;;32.90;58.20;;;;;;4992116;28;20038;-79
2021/07/01 10:18:10;;;;;;;1.73;1.63;;;32.90;56.00;;;;;;4993482;28;20037;-80
2021/07/01 10:20:56;;;;;;;0.30;0.30;;;33.10;55.50;;;;;;5018442;28;20117;-80
2021/07/01 10:23:30;;;;;;;1.48;1.25;;;33.30;56.10;;;;;;5033029;28;20062;-82
2021/07/01 10:26:23;;;;;;;1.60;1.08;;;33.50;56.10;;;;;;5017553;28;20050;-82
2021/07/01 10:29:01;;;;;;;2.15;1.63;;;33.70;55.70;;;;;;5008679;28;20034;-80
2021/07/01 10:31:47;;;;;;;1.58;1.35;;;33.90;56.40;;;;;;5006469;28;20117;-80
2021/07/01 10:34:14;;;;;;;1.23;1.05;;;33.70;56.10;;;;;;4995950;28;20117;-81
2021/07/01 10:36:40;;;;;;;2.45;1.58;;;33.70;56.20;;;;;;5001389;28;20034;-82
2021/07/01 10:39:06;;;;;;;9.43;1.05;;;33.90;56.70;;;;;;4999030;28;20107;-80
2021/07/01 10:41:37;;;;;;;1.65;1.38;;;34.00;55.90;;;;;;5002668;28;20097;-81
2021/07/01 10:44:05;;;;;;;1.15;0.85;;;34.10;55.10;;;;;;4994448;28;20117;-77
2021/07/01 10:46:38;;;;;;;2.30;1.95;;;34.00;55.10;;;;;;4992496;28;20042;-80
2021/07/01 10:49:05;;;;;;;0.95;0.85;;;34.60;55.50;;;;;;4990409;28;20034;-82
2021/07/01 10:51:31;;;;;;;33.53;4.35;;;34.70;55.50;;;;;;4992255;28;20049;-81
2021/07/01 10:54:15;;;;;;;2.22;1.77;;;34.60;55.50;;;;;;4991569;28;20057;-78
2021/07/01 10:56:43;;;;;;;1.08;0.95;;;34.60;56.00;;;;;;4991865;28;20102;-78
2021/07/01 10:59:11;;;;;;;3.00;2.00;;;34.80;55.80;;;;;;4991246;28;20069;-80
2021/07/01 11:01:41;;;;;;;1.10;1.00;;;35.00;55.30;;;;;;4992671;28;20038;-79
2021/07/01 11:04:18;;;;;;;1.05;0.68;;;34.90;54.80;;;;;;4991758;28;20022;-76
2021/07/01 11:06:56;;;;;;;5.53;1.50;;;35.10;55.50;;;;;;4994375;28;20054;-84
2021/07/01 11:09:22;;;;;;;1.65;1.23;;;34.90;55.40;;;;;;5001699;28;20140;-79
2021/07/01 11:11:59;;;;;;;0.28;0.28;;;34.80;55.60;;;;;;5030697;28;20065;-79
2021/07/01 11:14:45;;;;;;;1.70;1.52;;;35.10;55.00;;;;;;5012323;28;20072;-78
2021/07/01 11:17:12;;;;;;;1.00;0.80;;;35.30;54.70;;;;;;5011217;28;20124;-78
2021/07/01 11:19:40;;;;;;;2.15;1.95;;;34.90;54.70;;;;;;5025133;28;20194;-88
2021/07/01 11:22:06;;;;;;;0.75;0.75;;;34.80;54.70;;;;;;5014787;28;20042;-78
2021/07/01 11:24:32;;;;;;;0.90;0.80;;;35.30;55.00;;;;;;5011182;28;20088;-80
2021/07/01 11:27:01;;;;;;;1.75;1.40;;;35.40;54.20;;;;;;5011804;28;20038;-77
2021/07/01 11:29:56;;;;;;;0.90;0.80;;;34.90;54.30;;;;;;5005929;28;20645;-77
2021/07/01 11:32:26;;;;;;;0.35;0.35;;;34.60;53.80;;;;;;4995469;28;20049;-77
2021/07/01 11:34:53;;;;;;;0.63;0.52;;;34.40;53.70;;;;;;5004182;28;20113;-82
2021/07/01 11:37:42;;;;;;;1.55;1.30;;;34.50;54.50;;;;;;5005618;28;20077;-82
2021/07/01 11:40:12;;;;;;;0.57;0.57;;;34.80;54.60;;;;;;5002353;28;20176;-79
2021/07/01 11:42:38;;;;;;;1.48;1.38;;;35.30;54.30;;;;;;5004310;28;20389;-79
2021/07/01 11:45:05;;;;;;;1.65;1.13;;;35.60;53.60;;;;;;5002253;28;20188;-82
2021/07/01 11:47:33;;;;;;;0.75;0.70;;;35.70;53.40;;;;;;5006335;28;20038;-82
2021/07/01 11:50:01;;;;;;;0.40;0.40;;;35.80;53.20;;;;;;5003148;28;20046;-82
2021/07/01 11:52:31;;;;;;;0.50;0.50;;;35.40;53.60;;;;;;5006933;28;20034;-81
2021/07/01 11:55:01;;;;;;;0.40;0.40;;;35.30;52.80;;;;;;4996588;28;20030;-88
2021/07/01 11:57:28;;;;;;;0.73;0.73;;;35.10;52.90;;;;;;5004384;28;20157;-86
2021/07/01 11:59:55;;;;;;;0.73;0.73;;;34.90;53.40;;;;;;5012890;28;20053;-81
2021/07/01 12:02:21;;;;;;;1.20;1.05;;;35.40;54.20;;;;;;5007050;28;20031;-88
2021/07/01 12:04:48;;;;;;;0.75;0.60;;;35.10;53.50;;;;;;5001776;28;20022;-79
2021/07/01 12:07:29;;;;;;;0.30;0.30;;;34.80;54.10;;;;;;5006376;28;20138;-78
2021/07/01 12:09:56;;;;;;;0.20;0.20;;;34.90;53.80;;;;;;5036074;28;20133;-86
2021/07/01 12:12:28;;;;;;;0.57;0.57;;;35.10;54.00;;;;;;5004232;28;20034;-85
2021/07/01 12:15:10;;;;;;;1.65;1.45;;;35.10;53.40;;;;;;5004881;28;20034;-84
2021/07/01 12:18:03;;;;;;;2.17;1.42;;;35.00;53.50;;;;;;5005397;28;20038;-83
2021/07/01 12:20:54;;;;;;;0.88;0.88;;;34.80;52.80;;;;;;5005300;28;20025;-79
2021/07/01 12:23:23;;;;;;;0.65;0.65;;;34.40;53.40;;;;;;5004079;28;20030;-81
2021/07/01 12:25:53;;;;;;;0.63;0.40;;;34.80;52.80;;;;;;5037462;28;20022;-80
2021/07/01 12:28:27;;;;;;;1.52;0.47;;;35.30;52.30;;;;;;5008676;28;20034;-89
2021/07/01 12:30:58;;;;;;;1.60;1.20;;;35.60;52.60;;;;;;5015073;28;20444;-80
2021/07/01 12:33:48;;;;;;;0.80;0.77;;;36.00;51.30;;;;;;5015085;28;20038;-80
2021/07/01 12:36:20;;;;;;;0.60;0.60;;;36.10;51.80;;;;;;4994389;28;20050;-82
2021/07/01 12:39:12;;;;;;;0.85;0.70;;;36.00;51.50;;;;;;4995466;28;20041;-84
2021/07/01 12:41:53;;;;;;;3.95;1.88;;;36.30;51.30;;;;;;4989134;28;20678;-83
2021/07/01 12:44:41;;;;;;;5.60;2.47;;;36.20;50.50;;;;;;5026556;28;20099;-87
2021/07/01 12:47:25;;;;;;;0.20;0.20;;;36.30;51.20;;;;;;5013157;28;20409;-89
2021/07/01 12:49:53;;;;;;;0.95;0.88;;;36.50;50.70;;;;;;5013969;28;20432;-81
2021/07/01 12:52:21;;;;;;;7.30;1.70;;;36.10;50.50;;;;;;5013842;28;20038;-81
2021/07/01 12:54:47;;;;;;;1.75;1.10;;;35.90;50.80;;;;;;5014602;28;20033;-87
2021/07/01 12:57:14;;;;;;;0.22;0.22;;;35.60;51.20;;;;;;5012752;28;20029;-81
2021/07/01 12:59:45;;;;;;;5.63;3.05;;;35.50;51.80;;;;;;5014255;28;20081;-84
2021/07/01 13:02:13;;;;;;;1.13;0.68;;;36.00;51.30;;;;;;5013738;28;20378;-82
2021/07/01 13:04:48;;;;;;;0.40;0.35;;;36.20;50.70;;;;;;5014136;28;20065;-79
2021/07/01 13:07:18;;;;;;;1.20;1.00;;;36.50;50.30;;;;;;5013197;28;20643;-78
2021/07/01 13:09:45;;;;;;;;;;;36.80;48.60;;;;;;5013921;28;20402;-82
2021/07/01 13:12:27;;;;;;;0.43;0.43;;;36.70;48.70;;;;;;4998868;28;19916;-78
2021/07/01 13:14:53;;;;;;;2.38;1.60;;;36.30;48.80;;;;;;4993895;28;20035;-77